sensor_id;sensor_type;location;lat;lon;timestamp;P1;durP1;ratioP1;P2;durP2;ratioP2
29908;SDS011;36247;51.952;6.146;2022-08-05T00:00:28;8.82;;;5.65;;
29908;SDS011;36247;51.952;6.146;2022-08-05T00:02:54;8.18;;;4.85;;
29908;SDS011;36247;51.952;6.146;2022-08-05T00:05:20;8.27;;;5.10;;
29908;SDS011;36247;51.952;6.146;2022-08-05T00:07:45;9.05;;;5.70;;
29908;SDS011;36247;51.952;6.146;2022-08-05T00:10:11;6.28;;;4.57;;
29908;SDS011;36247;51.952;6.146;2022-08-05T00:12:36;8.98;;;5.20;;
29908;SDS011;36247;51.952;6.146;2022-08-05T00:15:03;10.50;;;5.53;;
29908;SDS011;36247;51.952;6.146;2022-08-05T00:17:29;9.77;;;4.78;;
29908;SDS011;36247;51.952;6.146;2022-08-05T00:19:54;7.38;;;4.82;;
29908;SDS011;36247;51.952;6.146;2022-08-05T00:22:20;7.65;;;5.38;;
29908;SDS011;36247;51.952;6.146;2022-08-05T00:24:45;7.32;;;5.07;;
29908;SDS011;36247;51.952;6.146;2022-08-05T00:27:10;9.57;;;5.25;;
29908;SDS011;36247;51.952;6.146;2022-08-05T00:29:36;9.48;;;5.07;;
29908;SDS011;36247;51.952;6.146;2022-08-05T00:32:01;10.65;;;4.78;;
29908;SDS011;36247;51.952;6.146;2022-08-05T00:34:28;8.40;;;5.22;;
29908;SDS011;36247;51.952;6.146;2022-08-05T00:36:53;11.90;;;5.18;;
29908;SDS011;36247;51.952;6.146;2022-08-05T00:39:19;12.32;;;5.35;;
29908;SDS011;36247;51.952;6.146;2022-08-05T00:41:45;11.80;;;6.43;;
29908;SDS011;36247;51.952;6.146;2022-08-05T00:44:11;9.20;;;5.55;;
29908;SDS011;36247;51.952;6.146;2022-08-05T00:46:36;8.75;;;5.25;;
29908;SDS011;36247;51.952;6.146;2022-08-05T00:49:02;14.60;;;5.97;;
29908;SDS011;36247;51.952;6.146;2022-08-05T00:51:28;9.75;;;5.10;;
29908;SDS011;36247;51.952;6.146;2022-08-05T00:53:54;9.70;;;5.93;;
29908;SDS011;36247;51.952;6.146;2022-08-05T00:56:19;11.25;;;5.28;;
29908;SDS011;36247;51.952;6.146;2022-08-05T00:58:45;11.60;;;5.68;;
29908;SDS011;36247;51.952;6.146;2022-08-05T01:01:10;8.82;;;5.20;;
29908;SDS011;36247;51.952;6.146;2022-08-05T01:03:39;12.52;;;6.25;;
29908;SDS011;36247;51.952;6.146;2022-08-05T01:06:05;11.48;;;5.68;;
29908;SDS011;36247;51.952;6.146;2022-08-05T01:08:31;7.85;;;5.70;;
29908;SDS011;36247;51.952;6.146;2022-08-05T01:10:58;9.90;;;5.72;;
29908;SDS011;36247;51.952;6.146;2022-08-05T01:15:55;10.75;;;5.28;;
29908;SDS011;36247;51.952;6.146;2022-08-05T01:18:24;10.35;;;5.53;;
29908;SDS011;36247;51.952;6.146;2022-08-05T01:23:34;14.20;;;7.00;;
29908;SDS011;36247;51.952;6.146;2022-08-05T01:29:46;12.43;;;5.85;;
29908;SDS011;36247;51.952;6.146;2022-08-05T01:32:10;7.93;;;5.65;;
29908;SDS011;36247;51.952;6.146;2022-08-05T01:34:42;7.75;;;5.10;;
29908;SDS011;36247;51.952;6.146;2022-08-05T01:37:17;9.50;;;5.40;;
29908;SDS011;36247;51.952;6.146;2022-08-05T01:39:47;14.55;;;5.57;;
29908;SDS011;36247;51.952;6.146;2022-08-05T01:42:16;6.78;;;5.30;;
29908;SDS011;36247;51.952;6.146;2022-08-05T01:44:44;8.77;;;5.95;;
29908;SDS011;36247;51.952;6.146;2022-08-05T01:47:11;8.45;;;6.03;;
29908;SDS011;36247;51.952;6.146;2022-08-05T01:49:42;6.50;;;5.85;;
29908;SDS011;36247;51.952;6.146;2022-08-05T01:52:09;12.32;;;6.13;;
29908;SDS011;36247;51.952;6.146;2022-08-05T01:54:42;7.47;;;5.63;;
29908;SDS011;36247;51.952;6.146;2022-08-05T01:57:09;9.73;;;5.70;;
29908;SDS011;36247;51.952;6.146;2022-08-05T01:59:38;9.63;;;5.72;;
29908;SDS011;36247;51.952;6.146;2022-08-05T02:02:06;14.38;;;6.45;;
29908;SDS011;36247;51.952;6.146;2022-08-05T02:04:36;11.80;;;6.22;;
29908;SDS011;36247;51.952;6.146;2022-08-05T02:07:04;7.32;;;5.53;;
29908;SDS011;36247;51.952;6.146;2022-08-05T02:09:30;9.57;;;6.45;;
29908;SDS011;36247;51.952;6.146;2022-08-05T02:12:04;12.95;;;6.50;;
29908;SDS011;36247;51.952;6.146;2022-08-05T02:14:33;9.30;;;6.03;;
29908;SDS011;36247;51.952;6.146;2022-08-05T02:17:10;9.88;;;7.13;;
29908;SDS011;36247;51.952;6.146;2022-08-05T02:19:48;8.32;;;6.13;;
29908;SDS011;36247;51.952;6.146;2022-08-05T02:22:30;10.65;;;5.82;;
29908;SDS011;36247;51.952;6.146;2022-08-05T02:25:23;12.45;;;5.68;;
29908;SDS011;36247;51.952;6.146;2022-08-05T02:27:51;11.20;;;6.18;;
29908;SDS011;36247;51.952;6.146;2022-08-05T02:30:20;9.07;;;6.78;;
29908;SDS011;36247;51.952;6.146;2022-08-05T02:32:48;13.15;;;6.20;;
29908;SDS011;36247;51.952;6.146;2022-08-05T02:35:20;9.85;;;5.95;;
29908;SDS011;36247;51.952;6.146;2022-08-05T02:37:48;12.80;;;6.65;;
29908;SDS011;36247;51.952;6.146;2022-08-05T02:40:17;13.05;;;6.60;;
29908;SDS011;36247;51.952;6.146;2022-08-05T02:42:44;10.02;;;6.50;;
29908;SDS011;36247;51.952;6.146;2022-08-05T02:45:11;8.88;;;6.30;;
29908;SDS011;36247;51.952;6.146;2022-08-05T02:47:38;12.82;;;6.93;;
29908;SDS011;36247;51.952;6.146;2022-08-05T02:50:05;13.70;;;7.13;;
29908;SDS011;36247;51.952;6.146;2022-08-05T02:52:32;13.43;;;7.35;;
29908;SDS011;36247;51.952;6.146;2022-08-05T02:54:59;12.68;;;6.75;;
29908;SDS011;36247;51.952;6.146;2022-08-05T02:57:25;13.05;;;6.63;;
29908;SDS011;36247;51.952;6.146;2022-08-05T02:59:51;11.35;;;6.65;;
29908;SDS011;36247;51.952;6.146;2022-08-05T03:02:18;15.48;;;6.57;;
29908;SDS011;36247;51.952;6.146;2022-08-05T03:04:46;18.20;;;7.28;;
29908;SDS011;36247;51.952;6.146;2022-08-05T03:07:14;10.68;;;6.80;;
29908;SDS011;36247;51.952;6.146;2022-08-05T03:09:41;11.70;;;7.13;;
29908;SDS011;36247;51.952;6.146;2022-08-05T03:12:09;11.88;;;7.53;;
29908;SDS011;36247;51.952;6.146;2022-08-05T03:14:52;13.60;;;7.93;;
29908;SDS011;36247;51.952;6.146;2022-08-05T03:17:18;11.25;;;7.38;;
29908;SDS011;36247;51.952;6.146;2022-08-05T03:19:44;16.17;;;7.47;;
29908;SDS011;36247;51.952;6.146;2022-08-05T03:22:09;13.02;;;8.32;;
29908;SDS011;36247;51.952;6.146;2022-08-05T03:24:35;14.18;;;7.95;;
29908;SDS011;36247;51.952;6.146;2022-08-05T03:27:00;11.20;;;7.72;;
29908;SDS011;36247;51.952;6.146;2022-08-05T03:29:26;13.82;;;8.50;;
29908;SDS011;36247;51.952;6.146;2022-08-05T03:31:51;12.70;;;8.18;;
29908;SDS011;36247;51.952;6.146;2022-08-05T03:34:17;12.57;;;7.35;;
29908;SDS011;36247;51.952;6.146;2022-08-05T03:36:44;11.85;;;7.65;;
29908;SDS011;36247;51.952;6.146;2022-08-05T03:39:09;9.90;;;7.43;;
29908;SDS011;36247;51.952;6.146;2022-08-05T03:41:35;11.05;;;7.25;;
29908;SDS011;36247;51.952;6.146;2022-08-05T03:44:00;13.43;;;7.85;;
29908;SDS011;36247;51.952;6.146;2022-08-05T03:46:26;12.25;;;7.88;;
29908;SDS011;36247;51.952;6.146;2022-08-05T03:48:51;18.80;;;7.97;;
29908;SDS011;36247;51.952;6.146;2022-08-05T03:54:20;13.40;;;7.78;;
29908;SDS011;36247;51.952;6.146;2022-08-05T03:57:00;14.02;;;8.00;;
29908;SDS011;36247;51.952;6.146;2022-08-05T03:59:32;12.18;;;8.02;;
29908;SDS011;36247;51.952;6.146;2022-08-05T04:02:06;14.98;;;8.05;;
29908;SDS011;36247;51.952;6.146;2022-08-05T04:04:34;11.55;;;7.78;;
29908;SDS011;36247;51.952;6.146;2022-08-05T04:07:00;10.55;;;8.18;;
29908;SDS011;36247;51.952;6.146;2022-08-05T04:09:28;15.35;;;8.25;;
29908;SDS011;36247;51.952;6.146;2022-08-05T04:11:54;10.90;;;7.47;;
29908;SDS011;36247;51.952;6.146;2022-08-05T04:14:20;16.92;;;8.15;;
29908;SDS011;36247;51.952;6.146;2022-08-05T04:16:46;13.40;;;8.00;;
29908;SDS011;36247;51.952;6.146;2022-08-05T04:19:12;16.50;;;8.77;;
29908;SDS011;36247;51.952;6.146;2022-08-05T04:21:38;17.02;;;8.77;;
29908;SDS011;36247;51.952;6.146;2022-08-05T04:24:05;16.30;;;9.18;;
29908;SDS011;36247;51.952;6.146;2022-08-05T04:26:30;11.77;;;8.05;;
29908;SDS011;36247;51.952;6.146;2022-08-05T04:28:56;19.00;;;7.72;;
29908;SDS011;36247;51.952;6.146;2022-08-05T04:31:21;16.63;;;8.10;;
29908;SDS011;36247;51.952;6.146;2022-08-05T04:33:47;13.77;;;8.60;;
29908;SDS011;36247;51.952;6.146;2022-08-05T04:36:12;14.57;;;8.85;;
29908;SDS011;36247;51.952;6.146;2022-08-05T04:38:41;14.43;;;7.53;;
29908;SDS011;36247;51.952;6.146;2022-08-05T04:41:07;13.82;;;7.97;;
29908;SDS011;36247;51.952;6.146;2022-08-05T04:43:32;18.13;;;8.32;;
29908;SDS011;36247;51.952;6.146;2022-08-05T04:45:58;16.48;;;8.85;;
29908;SDS011;36247;51.952;6.146;2022-08-05T04:48:24;14.38;;;9.07;;
29908;SDS011;36247;51.952;6.146;2022-08-05T04:50:49;13.38;;;7.63;;
29908;SDS011;36247;51.952;6.146;2022-08-05T04:53:15;14.45;;;7.55;;
29908;SDS011;36247;51.952;6.146;2022-08-05T04:55:43;12.05;;;7.75;;
29908;SDS011;36247;51.952;6.146;2022-08-05T04:58:11;17.50;;;9.10;;
29908;SDS011;36247;51.952;6.146;2022-08-05T05:00:38;16.05;;;9.48;;
29908;SDS011;36247;51.952;6.146;2022-08-05T05:03:05;12.95;;;9.63;;
29908;SDS011;36247;51.952;6.146;2022-08-05T05:05:32;12.68;;;8.13;;
29908;SDS011;36247;51.952;6.146;2022-08-05T05:08:00;14.75;;;8.57;;
29908;SDS011;36247;51.952;6.146;2022-08-05T05:10:28;15.15;;;7.93;;
29908;SDS011;36247;51.952;6.146;2022-08-05T05:12:55;16.40;;;8.80;;
29908;SDS011;36247;51.952;6.146;2022-08-05T05:15:21;16.05;;;7.97;;
29908;SDS011;36247;51.952;6.146;2022-08-05T05:17:47;14.10;;;8.20;;
29908;SDS011;36247;51.952;6.146;2022-08-05T05:20:12;12.75;;;8.27;;
29908;SDS011;36247;51.952;6.146;2022-08-05T05:22:38;11.77;;;7.22;;
29908;SDS011;36247;51.952;6.146;2022-08-05T05:25:05;14.07;;;7.78;;
29908;SDS011;36247;51.952;6.146;2022-08-05T05:27:32;12.45;;;7.20;;
29908;SDS011;36247;51.952;6.146;2022-08-05T05:29:58;13.68;;;7.22;;
29908;SDS011;36247;51.952;6.146;2022-08-05T05:32:24;12.73;;;7.30;;
29908;SDS011;36247;51.952;6.146;2022-08-05T05:34:49;11.65;;;7.28;;
29908;SDS011;36247;51.952;6.146;2022-08-05T05:37:14;13.60;;;7.85;;
29908;SDS011;36247;51.952;6.146;2022-08-05T05:39:41;12.02;;;7.75;;
29908;SDS011;36247;51.952;6.146;2022-08-05T05:42:07;17.60;;;7.80;;
29908;SDS011;36247;51.952;6.146;2022-08-05T05:44:32;11.32;;;7.80;;
29908;SDS011;36247;51.952;6.146;2022-08-05T05:46:58;12.38;;;6.97;;
29908;SDS011;36247;51.952;6.146;2022-08-05T05:49:25;12.95;;;7.50;;
29908;SDS011;36247;51.952;6.146;2022-08-05T05:51:51;10.88;;;7.25;;
29908;SDS011;36247;51.952;6.146;2022-08-05T05:54:17;11.60;;;7.18;;
29908;SDS011;36247;51.952;6.146;2022-08-05T05:56:44;13.95;;;7.82;;
29908;SDS011;36247;51.952;6.146;2022-08-05T05:59:09;12.75;;;7.03;;
29908;SDS011;36247;51.952;6.146;2022-08-05T06:01:38;15.13;;;7.15;;
29908;SDS011;36247;51.952;6.146;2022-08-05T06:04:07;12.65;;;7.25;;
29908;SDS011;36247;51.952;6.146;2022-08-05T06:06:34;12.30;;;6.60;;
29908;SDS011;36247;51.952;6.146;2022-08-05T06:09:01;15.25;;;7.03;;
29908;SDS011;36247;51.952;6.146;2022-08-05T06:11:28;10.68;;;6.47;;
29908;SDS011;36247;51.952;6.146;2022-08-05T06:13:53;10.40;;;6.45;;
29908;SDS011;36247;51.952;6.146;2022-08-05T06:16:19;13.45;;;7.05;;
29908;SDS011;36247;51.952;6.146;2022-08-05T06:18:44;11.40;;;6.50;;
29908;SDS011;36247;51.952;6.146;2022-08-05T06:21:10;13.30;;;6.72;;
29908;SDS011;36247;51.952;6.146;2022-08-05T06:23:35;13.82;;;7.05;;
29908;SDS011;36247;51.952;6.146;2022-08-05T06:26:00;12.35;;;6.75;;
29908;SDS011;36247;51.952;6.146;2022-08-05T06:28:26;16.83;;;6.53;;
29908;SDS011;36247;51.952;6.146;2022-08-05T06:30:51;11.82;;;6.47;;
29908;SDS011;36247;51.952;6.146;2022-08-05T06:33:17;11.23;;;6.40;;
29908;SDS011;36247;51.952;6.146;2022-08-05T06:35:43;10.68;;;5.90;;
29908;SDS011;36247;51.952;6.146;2022-08-05T06:38:09;8.02;;;6.50;;
29908;SDS011;36247;51.952;6.146;2022-08-05T06:40:35;11.25;;;6.25;;
29908;SDS011;36247;51.952;6.146;2022-08-05T06:43:00;10.63;;;6.03;;
29908;SDS011;36247;51.952;6.146;2022-08-05T06:45:25;11.63;;;6.30;;
29908;SDS011;36247;51.952;6.146;2022-08-05T06:47:51;9.05;;;6.15;;
29908;SDS011;36247;51.952;6.146;2022-08-05T06:50:17;10.68;;;6.28;;
29908;SDS011;36247;51.952;6.146;2022-08-05T06:52:44;8.13;;;5.53;;
29908;SDS011;36247;51.952;6.146;2022-08-05T06:55:09;10.32;;;6.38;;
29908;SDS011;36247;51.952;6.146;2022-08-05T06:57:35;11.40;;;5.90;;
29908;SDS011;36247;51.952;6.146;2022-08-05T07:00:00;9.10;;;6.25;;
29908;SDS011;36247;51.952;6.146;2022-08-05T07:02:27;10.50;;;6.30;;
29908;SDS011;36247;51.952;6.146;2022-08-05T07:04:53;7.57;;;5.90;;
29908;SDS011;36247;51.952;6.146;2022-08-05T07:07:18;11.90;;;6.28;;
29908;SDS011;36247;51.952;6.146;2022-08-05T07:09:44;13.95;;;7.38;;
29908;SDS011;36247;51.952;6.146;2022-08-05T07:12:09;15.90;;;5.95;;
29908;SDS011;36247;51.952;6.146;2022-08-05T07:14:55;11.13;;;6.28;;
29908;SDS011;36247;51.952;6.146;2022-08-05T07:17:39;8.43;;;5.95;;
29908;SDS011;36247;51.952;6.146;2022-08-05T07:20:05;10.77;;;6.28;;
29908;SDS011;36247;51.952;6.146;2022-08-05T07:22:30;9.10;;;6.28;;
29908;SDS011;36247;51.952;6.146;2022-08-05T07:24:57;11.77;;;6.25;;
29908;SDS011;36247;51.952;6.146;2022-08-05T07:27:23;11.57;;;6.72;;
29908;SDS011;36247;51.952;6.146;2022-08-05T07:29:48;13.05;;;5.85;;
29908;SDS011;36247;51.952;6.146;2022-08-05T07:32:13;11.27;;;5.93;;
29908;SDS011;36247;51.952;6.146;2022-08-05T07:34:39;11.98;;;5.72;;
29908;SDS011;36247;51.952;6.146;2022-08-05T07:37:05;10.00;;;6.68;;
29908;SDS011;36247;51.952;6.146;2022-08-05T07:39:30;12.18;;;6.72;;
29908;SDS011;36247;51.952;6.146;2022-08-05T07:41:56;10.77;;;5.82;;
29908;SDS011;36247;51.952;6.146;2022-08-05T07:44:21;10.10;;;5.78;;
29908;SDS011;36247;51.952;6.146;2022-08-05T07:46:47;10.68;;;6.45;;
29908;SDS011;36247;51.952;6.146;2022-08-05T07:49:13;26.98;;;8.35;;
29908;SDS011;36247;51.952;6.146;2022-08-05T07:51:38;11.88;;;5.68;;
29908;SDS011;36247;51.952;6.146;2022-08-05T07:54:05;9.48;;;4.78;;
29908;SDS011;36247;51.952;6.146;2022-08-05T07:56:31;8.80;;;4.88;;
29908;SDS011;36247;51.952;6.146;2022-08-05T07:58:56;7.53;;;4.53;;
29908;SDS011;36247;51.952;6.146;2022-08-05T08:01:22;9.88;;;4.70;;
29908;SDS011;36247;51.952;6.146;2022-08-05T08:03:50;16.30;;;6.00;;
29908;SDS011;36247;51.952;6.146;2022-08-05T08:06:15;9.52;;;4.55;;
29908;SDS011;36247;51.952;6.146;2022-08-05T08:08:41;8.60;;;4.03;;
29908;SDS011;36247;51.952;6.146;2022-08-05T08:11:06;6.18;;;3.90;;
29908;SDS011;36247;51.952;6.146;2022-08-05T08:13:32;9.73;;;4.50;;
29908;SDS011;36247;51.952;6.146;2022-08-05T08:15:57;8.02;;;4.35;;
29908;SDS011;36247;51.952;6.146;2022-08-05T08:18:23;9.98;;;4.65;;
29908;SDS011;36247;51.952;6.146;2022-08-05T08:20:48;9.75;;;4.13;;
29908;SDS011;36247;51.952;6.146;2022-08-05T08:23:15;8.63;;;4.50;;
29908;SDS011;36247;51.952;6.146;2022-08-05T08:25:42;9.60;;;4.63;;
29908;SDS011;36247;51.952;6.146;2022-08-05T08:28:09;10.27;;;4.18;;
29908;SDS011;36247;51.952;6.146;2022-08-05T08:30:35;9.93;;;4.15;;
29908;SDS011;36247;51.952;6.146;2022-08-05T08:33:00;6.88;;;3.53;;
29908;SDS011;36247;51.952;6.146;2022-08-05T08:35:31;9.43;;;4.40;;
29908;SDS011;36247;51.952;6.146;2022-08-05T08:37:57;5.28;;;3.00;;
29908;SDS011;36247;51.952;6.146;2022-08-05T08:40:22;6.80;;;4.40;;
29908;SDS011;36247;51.952;6.146;2022-08-05T08:42:50;9.00;;;3.25;;
29908;SDS011;36247;51.952;6.146;2022-08-05T08:45:18;7.88;;;3.30;;
29908;SDS011;36247;51.952;6.146;2022-08-05T08:47:45;5.78;;;2.83;;
29908;SDS011;36247;51.952;6.146;2022-08-05T08:50:11;8.48;;;3.60;;
29908;SDS011;36247;51.952;6.146;2022-08-05T08:52:38;6.40;;;2.97;;
29908;SDS011;36247;51.952;6.146;2022-08-05T08:55:06;5.13;;;2.72;;
29908;SDS011;36247;51.952;6.146;2022-08-05T08:57:33;6.03;;;2.40;;
29908;SDS011;36247;51.952;6.146;2022-08-05T09:02:13;3.77;;;2.30;;
29908;SDS011;36247;51.952;6.146;2022-08-05T09:04:39;2.55;;;1.80;;
29908;SDS011;36247;51.952;6.146;2022-08-05T09:07:05;5.28;;;1.80;;
29908;SDS011;36247;51.952;6.146;2022-08-05T09:09:32;3.47;;;1.65;;
29908;SDS011;36247;51.952;6.146;2022-08-05T09:11:58;5.30;;;2.10;;
29908;SDS011;36247;51.952;6.146;2022-08-05T09:14:25;6.88;;;2.08;;
29908;SDS011;36247;51.952;6.146;2022-08-05T09:16:51;2.90;;;1.90;;
29908;SDS011;36247;51.952;6.146;2022-08-05T09:19:17;5.82;;;2.22;;
29908;SDS011;36247;51.952;6.146;2022-08-05T09:21:44;5.15;;;2.00;;
29908;SDS011;36247;51.952;6.146;2022-08-05T09:24:09;5.45;;;2.25;;
29908;SDS011;36247;51.952;6.146;2022-08-05T09:26:37;2.22;;;1.70;;
29908;SDS011;36247;51.952;6.146;2022-08-05T09:29:07;4.28;;;2.28;;
29908;SDS011;36247;51.952;6.146;2022-08-05T09:31:32;3.63;;;2.08;;
29908;SDS011;36247;51.952;6.146;2022-08-05T09:34:03;5.60;;;2.10;;
29908;SDS011;36247;51.952;6.146;2022-08-05T09:39:14;4.05;;;1.83;;
29908;SDS011;36247;51.952;6.146;2022-08-05T09:42:01;2.30;;;1.90;;
29908;SDS011;36247;51.952;6.146;2022-08-05T09:47:15;3.55;;;2.15;;
29908;SDS011;36247;51.952;6.146;2022-08-05T09:52:21;3.38;;;2.25;;
29908;SDS011;36247;51.952;6.146;2022-08-05T09:54:55;5.38;;;1.92;;
29908;SDS011;36247;51.952;6.146;2022-08-05T09:57:31;4.50;;;1.95;;
29908;SDS011;36247;51.952;6.146;2022-08-05T10:00:20;3.55;;;2.17;;
29908;SDS011;36247;51.952;6.146;2022-08-05T10:02:49;2.65;;;2.10;;
29908;SDS011;36247;51.952;6.146;2022-08-05T10:05:19;5.68;;;1.98;;
29908;SDS011;36247;51.952;6.146;2022-08-05T10:07:47;3.03;;;2.03;;
29908;SDS011;36247;51.952;6.146;2022-08-05T10:10:16;2.97;;;1.67;;
29908;SDS011;36247;51.952;6.146;2022-08-05T10:12:49;3.85;;;2.13;;
29908;SDS011;36247;51.952;6.146;2022-08-05T10:20:39;2.28;;;1.50;;
29908;SDS011;36247;51.952;6.146;2022-08-05T10:23:10;1.98;;;1.17;;
29908;SDS011;36247;51.952;6.146;2022-08-05T10:25:38;3.42;;;1.30;;
29908;SDS011;36247;51.952;6.146;2022-08-05T10:28:05;3.13;;;1.63;;
29908;SDS011;36247;51.952;6.146;2022-08-05T10:30:31;4.10;;;1.20;;
29908;SDS011;36247;51.952;6.146;2022-08-05T10:32:57;4.07;;;1.35;;
29908;SDS011;36247;51.952;6.146;2022-08-05T10:35:25;4.03;;;1.15;;
29908;SDS011;36247;51.952;6.146;2022-08-05T10:37:52;2.13;;;1.20;;
29908;SDS011;36247;51.952;6.146;2022-08-05T10:40:22;3.08;;;1.30;;
29908;SDS011;36247;51.952;6.146;2022-08-05T10:42:55;3.95;;;1.40;;
29908;SDS011;36247;51.952;6.146;2022-08-05T10:45:26;1.90;;;1.02;;
29908;SDS011;36247;51.952;6.146;2022-08-05T10:47:52;2.03;;;1.27;;
29908;SDS011;36247;51.952;6.146;2022-08-05T10:50:18;2.22;;;1.05;;
29908;SDS011;36247;51.952;6.146;2022-08-05T10:55:24;1.83;;;0.70;;
29908;SDS011;36247;51.952;6.146;2022-08-05T10:58:09;2.00;;;0.77;;
29908;SDS011;36247;51.952;6.146;2022-08-05T11:00:35;4.75;;;1.20;;
29908;SDS011;36247;51.952;6.146;2022-08-05T11:05:31;1.02;;;0.68;;
29908;SDS011;36247;51.952;6.146;2022-08-05T11:08:02;2.20;;;0.88;;
29908;SDS011;36247;51.952;6.146;2022-08-05T11:10:30;1.70;;;0.80;;
29908;SDS011;36247;51.952;6.146;2022-08-05T11:12:58;1.08;;;0.95;;
29908;SDS011;36247;51.952;6.146;2022-08-05T11:15:28;0.50;;;0.50;;
29908;SDS011;36247;51.952;6.146;2022-08-05T11:18:05;2.50;;;1.05;;
29908;SDS011;36247;51.952;6.146;2022-08-05T11:20:34;1.33;;;0.80;;
29908;SDS011;36247;51.952;6.146;2022-08-05T11:25:59;3.97;;;1.00;;
29908;SDS011;36247;51.952;6.146;2022-08-05T11:35:57;1.35;;;0.77;;
29908;SDS011;36247;51.952;6.146;2022-08-05T11:43:43;0.45;;;0.45;;
29908;SDS011;36247;51.952;6.146;2022-08-05T11:46:27;1.77;;;0.68;;
29908;SDS011;36247;51.952;6.146;2022-08-05T11:48:54;1.73;;;0.82;;
29908;SDS011;36247;51.952;6.146;2022-08-05T11:51:20;2.25;;;0.80;;
29908;SDS011;36247;51.952;6.146;2022-08-05T11:53:47;3.60;;;1.13;;
29908;SDS011;36247;51.952;6.146;2022-08-05T11:56:13;4.35;;;1.10;;
29908;SDS011;36247;51.952;6.146;2022-08-05T11:58:40;2.67;;;0.80;;
29908;SDS011;36247;51.952;6.146;2022-08-05T12:01:11;1.13;;;0.70;;
29908;SDS011;36247;51.952;6.146;2022-08-05T12:03:51;3.17;;;0.65;;
29908;SDS011;36247;51.952;6.146;2022-08-05T12:06:20;2.47;;;0.90;;
29908;SDS011;36247;51.952;6.146;2022-08-05T12:08:48;0.75;;;0.75;;
29908;SDS011;36247;51.952;6.146;2022-08-05T12:11:22;0.65;;;0.65;;
29908;SDS011;36247;51.952;6.146;2022-08-05T12:16:18;0.60;;;0.60;;
29908;SDS011;36247;51.952;6.146;2022-08-05T12:18:44;0.85;;;0.60;;
29908;SDS011;36247;51.952;6.146;2022-08-05T12:21:15;1.33;;;0.52;;
29908;SDS011;36247;51.952;6.146;2022-08-05T12:23:51;1.77;;;0.70;;
29908;SDS011;36247;51.952;6.146;2022-08-05T12:26:30;1.27;;;0.98;;
29908;SDS011;36247;51.952;6.146;2022-08-05T12:28:58;3.42;;;0.80;;
29908;SDS011;36247;51.952;6.146;2022-08-05T12:31:23;2.42;;;0.85;;
29908;SDS011;36247;51.952;6.146;2022-08-05T12:33:49;1.90;;;1.00;;
29908;SDS011;36247;51.952;6.146;2022-08-05T12:36:15;2.92;;;0.75;;
29908;SDS011;36247;51.952;6.146;2022-08-05T12:38:41;0.93;;;0.90;;
29908;SDS011;36247;51.952;6.146;2022-08-05T12:41:10;2.55;;;0.80;;
29908;SDS011;36247;51.952;6.146;2022-08-05T12:43:53;5.38;;;0.85;;
29908;SDS011;36247;51.952;6.146;2022-08-05T12:46:27;6.82;;;0.93;;
29908;SDS011;36247;51.952;6.146;2022-08-05T12:49:15;1.88;;;0.77;;
29908;SDS011;36247;51.952;6.146;2022-08-05T12:51:42;2.45;;;0.82;;
29908;SDS011;36247;51.952;6.146;2022-08-05T12:54:09;1.52;;;0.80;;
29908;SDS011;36247;51.952;6.146;2022-08-05T12:56:39;1.88;;;0.80;;
29908;SDS011;36247;51.952;6.146;2022-08-05T12:59:09;2.22;;;1.00;;
29908;SDS011;36247;51.952;6.146;2022-08-05T13:01:39;2.53;;;1.00;;
29908;SDS011;36247;51.952;6.146;2022-08-05T13:04:05;2.45;;;0.70;;
29908;SDS011;36247;51.952;6.146;2022-08-05T13:06:32;2.35;;;0.98;;
29908;SDS011;36247;51.952;6.146;2022-08-05T13:08:59;4.07;;;0.75;;
29908;SDS011;36247;51.952;6.146;2022-08-05T13:11:30;2.50;;;0.80;;
29908;SDS011;36247;51.952;6.146;2022-08-05T13:13:56;3.35;;;0.95;;
29908;SDS011;36247;51.952;6.146;2022-08-05T13:16:23;2.22;;;1.05;;
29908;SDS011;36247;51.952;6.146;2022-08-05T13:18:52;4.22;;;1.20;;
29908;SDS011;36247;51.952;6.146;2022-08-05T13:21:19;1.58;;;0.75;;
29908;SDS011;36247;51.952;6.146;2022-08-05T13:23:44;1.15;;;0.85;;
29908;SDS011;36247;51.952;6.146;2022-08-05T13:26:10;2.05;;;0.80;;
29908;SDS011;36247;51.952;6.146;2022-08-05T13:28:36;3.97;;;1.20;;
29908;SDS011;36247;51.952;6.146;2022-08-05T13:31:01;2.15;;;0.93;;
29908;SDS011;36247;51.952;6.146;2022-08-05T13:33:27;1.30;;;0.73;;
29908;SDS011;36247;51.952;6.146;2022-08-05T13:35:53;1.00;;;0.90;;
29908;SDS011;36247;51.952;6.146;2022-08-05T13:38:19;1.48;;;0.80;;
29908;SDS011;36247;51.952;6.146;2022-08-05T13:40:45;1.48;;;0.85;;
29908;SDS011;36247;51.952;6.146;2022-08-05T13:43:10;0.73;;;0.70;;
29908;SDS011;36247;51.952;6.146;2022-08-05T13:45:36;2.08;;;0.90;;
29908;SDS011;36247;51.952;6.146;2022-08-05T13:48:01;0.70;;;0.70;;
29908;SDS011;36247;51.952;6.146;2022-08-05T13:53:08;1.35;;;0.88;;
29908;SDS011;36247;51.952;6.146;2022-08-05T13:55:34;3.88;;;1.25;;
29908;SDS011;36247;51.952;6.146;2022-08-05T13:57:59;1.30;;;0.90;;
29908;SDS011;36247;51.952;6.146;2022-08-05T14:00:25;3.90;;;1.05;;
29908;SDS011;36247;51.952;6.146;2022-08-05T14:02:50;2.50;;;0.90;;
29908;SDS011;36247;51.952;6.146;2022-08-05T14:05:16;1.63;;;0.77;;
29908;SDS011;36247;51.952;6.146;2022-08-05T14:07:42;1.10;;;0.70;;
29908;SDS011;36247;51.952;6.146;2022-08-05T14:10:14;1.00;;;0.55;;
29908;SDS011;36247;51.952;6.146;2022-08-05T14:12:41;2.70;;;0.75;;
29908;SDS011;36247;51.952;6.146;2022-08-05T14:15:09;1.00;;;0.70;;
29908;SDS011;36247;51.952;6.146;2022-08-05T14:17:36;6.20;;;1.10;;
29908;SDS011;36247;51.952;6.146;2022-08-05T14:20:02;2.13;;;0.82;;
29908;SDS011;36247;51.952;6.146;2022-08-05T14:22:29;2.03;;;1.02;;
29908;SDS011;36247;51.952;6.146;2022-08-05T14:24:54;2.63;;;1.13;;
29908;SDS011;36247;51.952;6.146;2022-08-05T14:27:20;2.65;;;0.70;;
29908;SDS011;36247;51.952;6.146;2022-08-05T14:29:45;0.80;;;0.80;;
29908;SDS011;36247;51.952;6.146;2022-08-05T14:34:27;1.65;;;0.80;;
29908;SDS011;36247;51.952;6.146;2022-08-05T14:36:55;3.38;;;0.80;;
29908;SDS011;36247;51.952;6.146;2022-08-05T14:39:20;1.77;;;0.70;;
29908;SDS011;36247;51.952;6.146;2022-08-05T14:41:45;1.70;;;0.57;;
29908;SDS011;36247;51.952;6.146;2022-08-05T14:44:11;1.30;;;0.73;;
29908;SDS011;36247;51.952;6.146;2022-08-05T14:46:36;4.90;;;1.00;;
29908;SDS011;36247;51.952;6.146;2022-08-05T14:49:02;3.45;;;1.30;;
29908;SDS011;36247;51.952;6.146;2022-08-05T14:51:29;0.88;;;0.70;;
29908;SDS011;36247;51.952;6.146;2022-08-05T14:54:03;1.08;;;0.90;;
29908;SDS011;36247;51.952;6.146;2022-08-05T14:56:30;2.25;;;1.10;;
29908;SDS011;36247;51.952;6.146;2022-08-05T14:58:58;0.95;;;0.70;;
29908;SDS011;36247;51.952;6.146;2022-08-05T15:01:25;1.58;;;0.93;;
29908;SDS011;36247;51.952;6.146;2022-08-05T15:03:52;0.70;;;0.60;;
29908;SDS011;36247;51.952;6.146;2022-08-05T15:06:17;1.13;;;0.70;;
29908;SDS011;36247;51.952;6.146;2022-08-05T15:08:44;1.70;;;1.00;;
29908;SDS011;36247;51.952;6.146;2022-08-05T15:11:09;0.82;;;0.75;;
29908;SDS011;36247;51.952;6.146;2022-08-05T15:13:35;2.20;;;0.90;;
29908;SDS011;36247;51.952;6.146;2022-08-05T15:16:01;2.42;;;2.22;;
29908;SDS011;36247;51.952;6.146;2022-08-05T15:18:27;5.25;;;1.90;;
29908;SDS011;36247;51.952;6.146;2022-08-05T15:20:52;1.80;;;0.88;;
29908;SDS011;36247;51.952;6.146;2022-08-05T15:23:18;2.38;;;0.68;;
29908;SDS011;36247;51.952;6.146;2022-08-05T15:25:43;4.13;;;1.20;;
29908;SDS011;36247;51.952;6.146;2022-08-05T15:28:09;1.85;;;1.00;;
29908;SDS011;36247;51.952;6.146;2022-08-05T15:30:35;0.98;;;0.70;;
29908;SDS011;36247;51.952;6.146;2022-08-05T15:33:03;3.13;;;1.40;;
29908;SDS011;36247;51.952;6.146;2022-08-05T15:35:30;0.70;;;0.70;;
29908;SDS011;36247;51.952;6.146;2022-08-05T15:37:56;1.33;;;1.23;;
29908;SDS011;36247;51.952;6.146;2022-08-05T15:40:21;2.92;;;1.35;;